createdAt,value
2019-01-25T00:04:18.030Z,31.50
2019-01-25T00:07:28.347Z,41.50
2019-01-25T00:10:18.900Z,36.67
2019-01-25T00:18:18.778Z,29.33
2019-01-25T00:20:49.665Z,33.33
2019-01-25T00:26:28.163Z,36.00
2019-01-25T00:34:47.730Z,35.00
2019-01-25T00:37:18.127Z,32.67
2019-01-25T00:40:07.071Z,32.00
2019-01-25T00:42:56.567Z,24.67
2019-01-25T00:45:26.903Z,29.33
2019-01-25T00:47:57.233Z,31.33
2019-01-25T00:50:28.302Z,36.50
2019-01-25T00:52:59.347Z,42.00
2019-01-25T00:55:29.612Z,32.00
2019-01-25T00:58:18.942Z,34.67
2019-01-25T01:00:49.343Z,32.67
2019-01-25T01:03:19.632Z,28.67
2019-01-25T01:05:52.553Z,30.00
2019-01-25T01:08:42.264Z,37.00
2019-01-25T01:11:12.529Z,32.00
2019-01-25T01:13:42.822Z,29.33
2019-01-25T01:16:15.843Z,30.00
2019-01-25T01:19:25.278Z,34.00
2019-01-25T01:21:55.645Z,32.67
2019-01-25T01:24:27.000Z,29.33
2019-01-25T01:27:28.546Z,25.33
2019-01-25T01:33:24.161Z,36.00
2019-01-25T01:35:47.467Z,29.50
2019-01-25T01:38:17.768Z,23.33
2019-01-25T01:41:06.954Z,24.00
2019-01-25T01:43:37.293Z,32.00
2019-01-25T01:46:26.237Z,34.00
2019-01-25T01:51:55.905Z,40.00
2019-01-25T01:54:26.136Z,27.33
2019-01-25T01:56:56.326Z,40.00
2019-01-25T01:59:48.723Z,30.00
2019-01-25T02:02:30.688Z,30.00
2019-01-25T02:08:21.154Z,34.00
2019-01-25T02:17:15.072Z,25.33
2019-01-25T02:19:58.757Z,37.00
2019-01-25T02:22:35.140Z,36.50
2019-01-25T02:28:07.499Z,27.33
2019-01-25T02:36:35.928Z,28.00
2019-01-25T02:39:25.166Z,37.33
2019-01-25T02:45:15.682Z,24.67
2019-01-25T02:56:12.859Z,30.00
2019-01-25T02:58:43.896Z,30.00
2019-01-25T03:03:57.592Z,40.00
2019-01-25T03:09:49.158Z,30.00
2019-01-25T03:15:29.362Z,30.67
2019-01-25T03:18:01.909Z,26.00
2019-01-25T03:20:57.648Z,34.00
2019-01-25T03:26:34.439Z,37.33
2019-01-25T03:29:23.901Z,30.67
2019-01-25T03:31:54.418Z,31.33
2019-01-25T03:34:45.126Z,26.00
2019-01-25T03:43:26.148Z,38.00
2019-01-25T03:46:51.082Z,36.00
2019-01-25T03:49:15.747Z,40.67
2019-01-25T03:54:49.111Z,30.67
2019-01-25T04:00:02.126Z,34.67
2019-01-25T04:02:32.369Z,30.00
2019-01-25T04:05:02.647Z,40.67
2019-01-25T04:07:44.958Z,38.00
2019-01-25T04:13:13.892Z,38.00
2019-01-25T04:16:04.320Z,33.33
2019-01-25T04:18:34.581Z,29.33
2019-01-25T04:21:05.728Z,42.00
2019-01-25T04:23:35.985Z,34.00
2019-01-25T04:26:26.167Z,45.33
2019-01-25T04:31:48.079Z,41.50
2019-01-25T04:34:38.153Z,37.50
2019-01-25T04:37:08.511Z,30.67
2019-01-25T04:39:58.515Z,34.00
2019-01-25T04:42:28.756Z,30.67
2019-01-25T04:45:00.028Z,45.33
2019-01-25T04:47:49.341Z,33.33
2019-01-25T04:50:22.041Z,41.00
2019-01-25T04:52:53.163Z,36.00
2019-01-25T04:55:43.463Z,42.50
2019-01-25T04:58:15.832Z,29.33
2019-01-25T05:01:24.869Z,37.00
2019-01-25T05:04:14.916Z,33.50
2019-01-25T05:06:48.306Z,47.50
2019-01-25T05:09:37.314Z,36.67
2019-01-25T05:14:49.599Z,42.00
2019-01-25T05:17:20.716Z,34.00
2019-01-25T05:20:09.978Z,36.00
2019-01-25T05:22:40.433Z,37.33
2019-01-25T05:25:11.436Z,44.50
2019-01-25T05:27:44.159Z,34.00
2019-01-25T05:30:34.255Z,49.00
2019-01-25T05:33:24.339Z,39.00
2019-01-25T05:44:27.767Z,38.50
2019-01-25T05:49:51.072Z,48.00
2019-01-25T05:52:40.840Z,36.00
2019-01-25T05:55:29.200Z,40.00
2019-01-25T05:57:50.716Z,47.50
2019-01-25T06:01:01.947Z,51.00
2019-01-25T06:03:33.020Z,35.50
2019-01-25T06:06:06.197Z,39.00
2019-01-25T06:08:56.357Z,42.50
2019-01-25T06:11:27.451Z,37.50
2019-01-25T06:13:58.564Z,42.50
2019-01-25T06:16:49.980Z,40.00
2019-01-25T06:19:39.686Z,48.00
2019-01-25T06:22:30.061Z,43.00
2019-01-25T06:25:13.216Z,44.50
2019-01-25T06:28:17.916Z,44.00
2019-01-25T06:31:08.392Z,43.33
2019-01-25T06:34:17.158Z,43.50
2019-01-25T06:37:07.418Z,41.00
2019-01-25T06:39:37.779Z,37.33
2019-01-25T06:45:00.401Z,48.00
2019-01-25T06:48:10.978Z,36.50
2019-01-25T06:51:00.703Z,35.00
2019-01-25T06:59:22.811Z,45.50
2019-01-25T07:02:12.570Z,58.50
2019-01-25T07:04:42.885Z,38.67
2019-01-25T07:10:03.379Z,48.50
2019-01-25T07:12:55.016Z,34.00
2019-01-25T07:15:28.066Z,39.33
2019-01-25T07:21:01.370Z,52.00
2019-01-25T07:23:51.397Z,37.00
2019-01-25T07:26:37.400Z,44.50
2019-01-25T07:29:09.251Z,45.33
2019-01-25T07:31:39.573Z,36.00
2019-01-25T07:34:12.342Z,40.67
2019-01-25T07:36:43.682Z,46.00
2019-01-25T07:39:34.129Z,60.50
2019-01-25T07:42:05.327Z,57.50
2019-01-25T07:44:36.625Z,40.50
2019-01-25T07:47:07.968Z,48.50
2019-01-25T07:49:38.251Z,38.67
2019-01-25T07:52:50.305Z,47.00
2019-01-25T07:55:21.513Z,54.00
2019-01-25T08:01:08.897Z,74.75
2019-01-25T08:03:40.039Z,57.50
2019-01-25T08:06:14.215Z,44.50
2019-01-25T08:08:59.886Z,51.50
2019-01-25T08:11:45.117Z,36.00
2019-01-25T08:14:05.251Z,32.67
2019-01-25T08:16:36.407Z,45.00
2019-01-25T08:19:26.245Z,49.50
2019-01-25T08:22:08.908Z,43.00
2019-01-25T08:30:33.155Z,36.00
2019-01-25T08:36:24.718Z,44.67
2019-01-25T08:38:56.029Z,44.00
2019-01-25T08:41:29.989Z,57.50
2019-01-25T08:44:05.958Z,47.00
2019-01-25T08:52:37.182Z,48.00
2019-01-25T08:55:29.844Z,45.50
2019-01-25T08:58:19.078Z,51.50
2019-01-25T09:00:43.012Z,55.50
2019-01-25T09:03:14.832Z,65.00
2019-01-25T09:06:21.219Z,40.67
2019-01-25T09:18:36.083Z,47.00
2019-01-25T09:21:28.545Z,49.50
2019-01-25T09:24:30.758Z,40.50
2019-01-25T09:27:43.318Z,52.50
2019-01-25T09:30:23.306Z,53.00
2019-01-25T09:32:54.516Z,63.50
2019-01-25T09:38:49.341Z,42.00
2019-01-25T09:44:29.392Z,42.67
2019-01-25T09:47:17.311Z,58.00
2019-01-25T09:49:48.231Z,37.33
2019-01-25T09:52:22.006Z,52.50
2019-01-25T09:54:59.678Z,50.50
2019-01-25T09:57:52.299Z,45.00
2019-01-25T10:04:04.569Z,49.50
2019-01-25T10:06:53.970Z,47.33
2019-01-25T10:09:45.360Z,38.00
2019-01-25T10:12:43.069Z,61.50
2019-01-25T10:15:47.260Z,51.50
2019-01-25T10:18:40.122Z,48.00
2019-01-25T10:21:30.501Z,51.50
2019-01-25T10:24:14.968Z,48.50
2019-01-25T10:27:05.465Z,59.00
2019-01-25T10:29:36.743Z,53.50
2019-01-25T10:35:47.541Z,53.00
2019-01-25T10:41:10.878Z,39.33
2019-01-25T10:43:41.596Z,42.67
2019-01-25T10:46:12.725Z,54.50
2019-01-25T10:48:44.493Z,56.50
2019-01-25T10:51:37.342Z,43.50
2019-01-25T10:57:17.869Z,51.50
2019-01-25T10:59:49.933Z,43.00
2019-01-25T11:02:24.042Z,51.50
2019-01-25T11:05:34.263Z,54.50
2019-01-25T11:08:05.157Z,40.67
2019-01-25T11:13:31.427Z,59.00
2019-01-25T11:16:42.186Z,79.00
2019-01-25T11:22:27.590Z,60.50
2019-01-25T11:25:01.752Z,53.00
2019-01-25T11:27:36.371Z,61.00
2019-01-25T11:30:29.152Z,58.00
2019-01-25T11:33:00.920Z,60.50
2019-01-25T11:35:44.217Z,56.50
2019-01-25T11:38:25.330Z,61.00
2019-01-25T11:41:15.707Z,43.00
2019-01-25T11:46:40.042Z,63.50
2019-01-25T11:53:19.172Z,54.00
2019-01-25T11:55:53.446Z,48.00
2019-01-25T11:58:38.697Z,79.00
2019-01-25T12:04:22.336Z,55.50
2019-01-25T12:07:27.651Z,53.50
2019-01-25T12:16:10.335Z,45.50
2019-01-25T12:19:03.446Z,52.00
2019-01-25T12:21:47.311Z,57.00
2019-01-25T12:24:33.474Z,64.67
2019-01-25T12:26:54.448Z,50.00
2019-01-25T12:29:28.320Z,49.00
2019-01-25T12:32:37.289Z,60.00
2019-01-25T12:35:48.868Z,66.50
2019-01-25T12:41:29.286Z,49.50
2019-01-25T12:44:38.480Z,59.00
2019-01-25T12:47:10.015Z,77.00
2019-01-25T12:50:00.555Z,71.50
2019-01-25T12:53:10.905Z,62.00
2019-01-25T12:58:43.146Z,56.00
2019-01-25T13:04:28.172Z,49.00
2019-01-25T13:07:19.255Z,54.50
2019-01-25T13:09:51.083Z,59.50
2019-01-25T13:12:25.198Z,94.00
2019-01-25T13:14:55.627Z,56.50
2019-01-25T13:17:45.944Z,97.50
2019-01-25T13:21:01.442Z,52.00
2019-01-25T13:23:16.238Z,57.50
2019-01-25T13:29:32.837Z,40.67
2019-01-25T13:32:19.119Z,44.67
2019-01-25T13:35:10.028Z,56.50
2019-01-25T13:38:21.493Z,82.50
2019-01-25T13:40:55.620Z,61.50
2019-01-25T13:46:58.767Z,66.50
2019-01-25T13:49:58.196Z,66.50
2019-01-25T13:52:51.594Z,72.50
2019-01-25T13:58:32.343Z,51.50
2019-01-25T14:01:03.734Z,59.50
2019-01-25T14:03:34.980Z,57.50
2019-01-25T14:06:27.323Z,68.50
2019-01-25T14:09:19.122Z,51.50
2019-01-25T14:12:12.244Z,69.50
2019-01-25T14:20:31.622Z,58.00
2019-01-25T14:23:12.150Z,51.00
2019-01-25T14:25:44.735Z,56.00
2019-01-25T14:28:55.154Z,63.50
2019-01-25T14:31:27.110Z,64.00
2019-01-25T14:33:58.218Z,56.50
2019-01-25T14:37:10.117Z,54.67
2019-01-25T14:45:33.883Z,54.00
2019-01-25T14:48:07.688Z,59.00
2019-01-25T14:51:17.994Z,54.50
2019-01-25T14:54:09.436Z,62.00
2019-01-25T14:56:49.868Z,56.00
2019-01-25T15:08:42.889Z,65.50
2019-01-25T15:11:22.248Z,62.00
2019-01-25T15:14:47.225Z,57.50
2019-01-25T15:17:28.819Z,54.50
2019-01-25T15:20:19.016Z,48.00
2019-01-25T15:26:06.004Z,52.00
2019-01-25T15:29:10.293Z,57.00
2019-01-25T15:37:43.618Z,42.67
2019-01-25T15:40:34.303Z,62.50
2019-01-25T15:43:15.906Z,69.50
2019-01-25T15:46:18.511Z,52.50
2019-01-25T15:48:38.972Z,57.00
2019-01-25T15:51:29.163Z,62.00
2019-01-25T15:54:00.261Z,58.50
2019-01-25T15:57:09.279Z,72.00
2019-01-25T16:00:00.249Z,63.75
2019-01-25T16:02:50.433Z,65.50
2019-01-25T16:05:40.896Z,50.50
2019-01-25T16:28:53.698Z,50.00
2019-01-25T16:31:27.865Z,58.50
2019-01-25T16:34:17.605Z,59.00
2019-01-25T16:37:07.734Z,59.00
2019-01-25T16:40:31.625Z,59.00
2019-01-25T16:49:18.472Z,51.50
2019-01-25T16:51:51.818Z,47.00
2019-01-25T16:57:10.342Z,56.00
2019-01-25T16:59:43.225Z,41.33
2019-01-25T17:05:27.585Z,44.00
2019-01-25T17:11:39.252Z,42.00
2019-01-25T17:14:33.352Z,43.33
2019-01-25T17:17:32.173Z,37.33
2019-01-25T17:20:36.712Z,30.00
2019-01-25T17:22:56.138Z,35.33
2019-01-25T17:28:46.808Z,36.67
2019-01-25T17:34:47.128Z,24.00
2019-01-25T17:40:46.418Z,26.00
2019-01-25T17:43:12.067Z,21.33
2019-01-25T17:51:59.263Z,38.00
2019-01-25T17:57:49.733Z,40.67
2019-01-25T18:04:02.862Z,36.00
2019-01-25T18:06:35.450Z,26.67
2019-01-25T18:09:08.654Z,36.00
2019-01-25T18:11:39.256Z,34.67
2019-01-25T18:14:09.473Z,31.33
2019-01-25T18:16:59.519Z,38.50
2019-01-25T18:19:49.587Z,42.00
2019-01-25T18:25:48.885Z,33.00
2019-01-25T18:28:40.850Z,44.00
2019-01-25T18:31:16.156Z,32.00
2019-01-25T18:33:49.096Z,32.50
2019-01-25T18:36:39.138Z,38.50
2019-01-25T18:39:47.616Z,25.33
2019-01-25T18:42:18.314Z,28.67
2019-01-25T18:45:08.374Z,29.00
2019-01-25T18:47:57.676Z,32.67
2019-01-25T18:50:27.960Z,38.00
2019-01-25T18:53:01.290Z,36.00
2019-01-25T18:55:51.334Z,45.50
2019-01-25T18:58:38.296Z,54.00
2019-01-25T19:01:18.599Z,30.67
2019-01-25T19:04:13.254Z,31.50
2019-01-25T19:07:07.125Z,40.50
2019-01-25T19:09:38.548Z,30.00
2019-01-25T19:15:33.769Z,32.67
2019-01-25T19:21:06.604Z,44.00
2019-01-25T19:23:58.392Z,32.00
2019-01-25T19:26:59.347Z,39.33
2019-01-25T19:30:12.467Z,34.67
2019-01-25T19:33:34.441Z,27.33
2019-01-25T19:36:13.196Z,30.00
2019-01-25T19:38:44.271Z,39.50
2019-01-25T19:41:53.423Z,32.00
2019-01-25T19:44:38.152Z,34.00
2019-01-25T19:47:47.816Z,44.00
2019-01-25T19:53:51.455Z,37.50
2019-01-25T19:59:51.041Z,28.67
2019-01-25T20:02:40.346Z,40.67
2019-01-25T20:05:36.490Z,42.00
2019-01-25T20:08:27.406Z,34.67
2019-01-25T20:14:28.621Z,42.00
2019-01-25T20:17:18.707Z,47.50
2019-01-25T20:22:49.189Z,30.67
2019-01-25T20:26:26.705Z,32.00
2019-01-25T20:29:09.242Z,40.67
2019-01-25T20:35:44.947Z,34.67
2019-01-25T20:38:18.602Z,50.00
2019-01-25T20:41:10.222Z,42.00
2019-01-25T20:43:46.023Z,37.00
2019-01-25T20:49:46.317Z,48.50
2019-01-25T20:55:30.501Z,26.00
2019-01-25T20:58:41.660Z,36.67
2019-01-25T21:07:04.712Z,40.67
2019-01-25T21:12:22.617Z,35.50
2019-01-25T21:15:13.449Z,32.67
2019-01-25T21:18:05.465Z,30.00
2019-01-25T21:20:54.721Z,28.00
2019-01-25T21:23:44.049Z,44.00
2019-01-25T21:29:13.895Z,36.67
2019-01-25T21:31:56.189Z,34.67
2019-01-25T21:35:21.607Z,32.50
2019-01-25T21:36:50.857Z,29.33
2019-01-25T21:39:21.233Z,36.67
2019-01-25T21:42:11.416Z,44.00
2019-01-25T21:44:42.016Z,29.33
2019-01-25T21:50:26.599Z,41.00
2019-01-25T21:56:12.114Z,39.00
2019-01-25T21:58:55.338Z,40.50
2019-01-25T22:02:04.814Z,20.00
2019-01-25T22:07:42.988Z,36.67
2019-01-25T22:10:35.237Z,36.50
2019-01-25T22:13:05.737Z,35.33
2019-01-25T22:15:38.540Z,30.00
2019-01-25T22:18:08.762Z,31.33
2019-01-25T22:21:01.858Z,42.00
2019-01-25T22:23:53.817Z,36.00
2019-01-25T22:26:48.283Z,24.00
2019-01-25T22:29:18.833Z,28.00
2019-01-25T22:31:53.293Z,27.33
2019-01-25T22:34:26.140Z,28.00
2019-01-25T22:36:58.643Z,25.33
2019-01-25T22:39:29.215Z,29.33
2019-01-25T22:42:21.939Z,32.00
2019-01-25T22:44:36.981Z,32.50
2019-01-25T22:47:29.286Z,31.33
2019-01-25T22:50:18.527Z,30.00
2019-01-25T22:55:56.210Z,35.50
2019-01-25T22:59:06.925Z,28.00
2019-01-25T23:01:37.324Z,32.00
2019-01-25T23:04:47.933Z,26.00
2019-01-25T23:07:40.817Z,30.00
2019-01-25T23:13:24.065Z,30.00
2019-01-25T23:16:13.034Z,30.00
2019-01-25T23:18:48.608Z,31.33
2019-01-25T23:24:20.120Z,28.00
2019-01-25T23:27:09.404Z,37.33
2019-01-25T23:29:59.926Z,32.00
2019-01-25T23:32:52.319Z,39.33
2019-01-25T23:35:41.248Z,22.00
2019-01-25T23:38:30.539Z,30.67
2019-01-25T23:41:01.587Z,46.50
2019-01-25T23:44:11.084Z,32.67
2019-01-25T23:47:00.300Z,26.67
2019-01-25T23:49:42.869Z,28.00
2019-01-25T23:52:03.888Z,34.67
2019-01-25T23:54:36.808Z,28.00
2019-01-25T23:57:28.447Z,32.67
